createdAt,value
2017-05-20T00:00:06.458Z,85.30
2017-05-20T00:02:35.214Z,85.30
2017-05-20T00:05:03.993Z,85.10
2017-05-20T00:07:32.758Z,86.30
2017-05-20T00:10:01.534Z,85.30
2017-05-20T00:12:30.333Z,84.90
2017-05-20T00:14:59.102Z,85.60
2017-05-20T00:17:27.874Z,84.60
2017-05-20T00:19:56.665Z,86.50
2017-05-20T00:22:25.425Z,86.60
2017-05-20T00:24:54.193Z,86.10
2017-05-20T00:27:22.976Z,86.00
2017-05-20T00:29:51.741Z,85.50
2017-05-20T00:32:20.513Z,87.10
2017-05-20T00:34:49.306Z,88.30
2017-05-20T00:37:18.073Z,86.30
2017-05-20T00:39:46.837Z,86.20
2017-05-20T00:42:15.629Z,87.90
2017-05-20T00:44:45.308Z,88.20
2017-05-20T00:47:14.077Z,86.40
2017-05-20T00:49:42.853Z,85.20
2017-05-20T00:52:11.624Z,86.10
2017-05-20T00:54:40.393Z,85.70
2017-05-20T00:57:09.168Z,85.10
2017-05-20T00:59:37.932Z,85.90
2017-05-20T01:02:06.705Z,85.70
2017-05-20T01:04:35.488Z,84.90
2017-05-20T01:07:04.253Z,84.30
2017-05-20T01:09:33.025Z,86.20
2017-05-20T01:12:01.796Z,86.00
2017-05-20T01:14:30.564Z,86.20
2017-05-20T01:16:59.324Z,85.70
2017-05-20T01:19:28.129Z,86.00
2017-05-20T01:21:56.900Z,84.30
2017-05-20T01:24:25.660Z,84.90
2017-05-20T01:26:54.476Z,85.20
2017-05-20T01:29:23.252Z,87.10
2017-05-20T01:31:52.032Z,87.00
2017-05-20T01:34:20.809Z,85.70
2017-05-20T01:36:49.624Z,86.00
2017-05-20T01:39:18.384Z,85.70
2017-05-20T01:41:47.176Z,85.90
2017-05-20T01:44:15.940Z,85.40
2017-05-20T01:46:44.707Z,85.00
2017-05-20T01:49:13.492Z,85.50
2017-05-20T01:51:42.247Z,85.10
2017-05-20T01:54:11.019Z,85.00
2017-05-20T01:56:39.821Z,86.00
2017-05-20T01:59:08.584Z,85.00
2017-05-20T02:01:37.343Z,84.50
2017-05-20T02:04:06.131Z,84.80
2017-05-20T02:06:34.950Z,85.70
2017-05-20T02:09:03.655Z,85.40
2017-05-20T02:11:32.463Z,85.30
2017-05-20T02:14:01.227Z,85.40
2017-05-20T02:16:29.996Z,85.30
2017-05-20T02:18:58.791Z,85.40
2017-05-20T02:21:27.559Z,85.00
2017-05-20T02:23:56.313Z,85.30
2017-05-20T02:26:25.111Z,85.60
2017-05-20T02:28:53.871Z,86.00
2017-05-20T02:31:22.644Z,85.30
2017-05-20T02:33:51.436Z,85.60
2017-05-20T02:36:20.203Z,84.90
2017-05-20T02:38:49.011Z,85.40
2017-05-20T02:41:17.791Z,84.10
2017-05-20T02:43:46.555Z,83.80
2017-05-20T02:46:15.319Z,84.70
2017-05-20T02:48:44.087Z,86.10
2017-05-20T02:51:12.839Z,85.00
2017-05-20T02:53:41.599Z,85.20
2017-05-20T02:56:10.371Z,85.10
2017-05-20T02:58:39.131Z,84.80
2017-05-20T03:01:07.883Z,84.70
2017-05-20T03:03:36.682Z,84.90
2017-05-20T03:06:05.438Z,84.40
2017-05-20T03:08:34.207Z,83.80
2017-05-20T03:11:02.991Z,83.40
2017-05-20T03:13:31.759Z,82.70
2017-05-20T03:16:00.522Z,82.50
2017-05-20T03:18:31.199Z,82.50
2017-05-20T03:20:59.967Z,82.30
2017-05-20T03:23:28.722Z,82.60
2017-05-20T03:25:57.494Z,82.30
2017-05-20T03:28:26.259Z,81.90
2017-05-20T03:30:55.018Z,82.10
2017-05-20T03:33:23.814Z,82.50
2017-05-20T03:35:52.583Z,81.80
2017-05-20T03:38:21.343Z,81.20
2017-05-20T03:40:51.106Z,81.30
2017-05-20T03:43:19.862Z,81.60
2017-05-20T03:45:48.635Z,81.30
2017-05-20T03:48:17.434Z,83.00
2017-05-20T03:50:46.198Z,82.60
2017-05-20T03:53:14.958Z,82.80
2017-05-20T03:55:43.758Z,82.70
2017-05-20T03:58:12.518Z,83.00
2017-05-20T04:00:41.278Z,82.50
2017-05-20T04:03:10.054Z,83.00
2017-05-20T04:05:38.814Z,82.80
2017-05-20T04:08:07.578Z,82.60
2017-05-20T04:10:36.366Z,82.50
2017-05-20T04:13:06.030Z,82.40
2017-05-20T04:15:34.826Z,83.00
2017-05-20T04:18:03.630Z,82.00
2017-05-20T04:20:32.397Z,81.20
2017-05-20T04:23:01.170Z,80.80
2017-05-20T04:25:29.958Z,80.90
2017-05-20T04:27:58.730Z,82.30
2017-05-20T04:30:27.497Z,82.00
2017-05-20T04:32:56.266Z,81.60
2017-05-20T04:35:25.037Z,82.10
2017-05-20T04:37:53.802Z,82.20
2017-05-20T04:40:22.605Z,82.10
2017-05-20T04:42:51.365Z,82.50
2017-05-20T04:45:20.133Z,83.40
2017-05-20T04:47:48.922Z,84.30
2017-05-20T04:50:19.586Z,83.40
2017-05-20T04:52:48.358Z,81.90
2017-05-20T04:55:17.121Z,83.00
2017-05-20T04:57:45.898Z,82.50
2017-05-20T05:00:14.693Z,81.90
2017-05-20T05:02:43.453Z,82.10
2017-05-20T05:05:12.222Z,82.50
2017-05-20T05:07:41.193Z,81.50
2017-05-20T05:10:09.957Z,81.60
2017-05-20T05:12:38.721Z,81.60
2017-05-20T05:15:07.494Z,81.20
2017-05-20T05:17:37.167Z,82.20
2017-05-20T05:20:08.009Z,82.10
2017-05-20T05:22:40.577Z,81.60
2017-05-20T05:25:25.809Z,81.40
2017-05-20T05:27:56.477Z,80.50
2017-05-20T05:30:28.877Z,79.80
2017-05-20T05:32:58.566Z,79.80
2017-05-20T05:35:32.378Z,79.90
2017-05-20T05:38:06.169Z,78.70
2017-05-20T05:40:44.685Z,79.40
2017-05-20T05:43:25.403Z,79.70
2017-05-20T05:45:54.197Z,79.70
2017-05-20T05:48:22.981Z,77.60
2017-05-20T05:50:51.749Z,78.10
2017-05-20T05:53:20.537Z,78.80
2017-05-20T05:55:49.300Z,78.10
2017-05-20T05:58:18.081Z,78.50
2017-05-20T06:00:46.861Z,78.90
2017-05-20T06:03:15.624Z,76.50
2017-05-20T06:05:44.392Z,77.60
2017-05-20T06:08:13.173Z,76.60
2017-05-20T06:10:41.949Z,76.00
2017-05-20T06:13:10.720Z,76.20
2017-05-20T06:15:41.401Z,76.30
2017-05-20T06:18:10.173Z,76.90
2017-05-20T06:20:38.944Z,76.50
2017-05-20T06:23:07.849Z,74.90
2017-05-20T06:25:36.580Z,76.00
2017-05-20T06:28:05.349Z,76.00
2017-05-20T06:30:34.132Z,74.80
2017-05-20T06:33:02.905Z,74.50
2017-05-20T06:35:31.680Z,74.70
2017-05-20T06:38:00.477Z,72.10
2017-05-20T06:40:29.252Z,71.80
2017-05-20T06:42:58.024Z,72.60
2017-05-20T06:45:26.820Z,70.80
2017-05-20T06:47:56.497Z,70.50
2017-05-20T06:50:25.276Z,71.70
2017-05-20T06:52:54.060Z,70.20
2017-05-20T06:55:22.832Z,69.30
2017-05-20T06:57:51.604Z,68.30
2017-05-20T07:00:20.400Z,66.80
2017-05-20T07:02:49.196Z,68.60
2017-05-20T07:05:17.972Z,69.60
2017-05-20T07:07:46.777Z,67.80
2017-05-20T07:10:15.548Z,68.20
2017-05-20T07:12:44.325Z,67.90
2017-05-20T07:15:13.116Z,68.10
2017-05-20T07:17:41.889Z,68.80
2017-05-20T07:20:10.668Z,67.50
2017-05-20T07:22:39.464Z,66.90
2017-05-20T07:25:08.228Z,67.20
2017-05-20T07:27:37.012Z,67.50
2017-05-20T07:30:05.820Z,67.30
2017-05-20T07:32:34.599Z,67.40
2017-05-20T07:35:03.384Z,66.40
2017-05-20T07:37:32.175Z,67.10
2017-05-20T07:40:00.947Z,66.40
2017-05-20T07:42:28.951Z,66.40
2017-05-20T07:44:57.760Z,64.00
2017-05-20T07:47:26.535Z,63.40
2017-05-20T07:49:55.316Z,64.30
2017-05-20T07:52:24.167Z,61.30
2017-05-20T07:54:52.982Z,63.80
2017-05-20T07:57:21.747Z,63.80
2017-05-20T07:59:50.539Z,62.20
2017-05-20T08:02:19.316Z,65.00
2017-05-20T08:04:48.083Z,61.60
2017-05-20T08:07:16.883Z,64.30
2017-05-20T08:09:45.647Z,61.90
2017-05-20T08:12:14.409Z,62.40
2017-05-20T08:14:43.199Z,61.60
2017-05-20T08:17:11.975Z,62.90
2017-05-20T08:19:40.743Z,62.20
2017-05-20T08:22:09.523Z,60.00
2017-05-20T08:24:38.290Z,61.50
2017-05-20T08:27:10.771Z,59.40
2017-05-20T08:29:39.539Z,63.90
2017-05-20T08:32:08.314Z,59.70
2017-05-20T08:34:37.096Z,58.70
2017-05-20T08:37:05.862Z,58.00
2017-05-20T08:39:35.531Z,57.90
2017-05-20T08:42:04.318Z,59.70
2017-05-20T08:44:33.087Z,59.70
2017-05-20T08:47:01.906Z,58.80
2017-05-20T08:49:35.499Z,59.50
2017-05-20T08:52:04.263Z,56.80
2017-05-20T08:54:33.974Z,56.90
2017-05-20T08:57:08.719Z,56.00
2017-05-20T08:59:37.510Z,55.80
2017-05-20T09:02:16.008Z,56.00
2017-05-20T09:04:48.599Z,53.50
2017-05-20T09:07:17.375Z,55.00
2017-05-20T09:12:04.027Z,54.00
2017-05-20T09:14:32.816Z,54.50
2017-05-20T09:17:01.574Z,52.30
2017-05-20T09:19:31.275Z,54.30
2017-05-20T09:22:00.050Z,52.70
2017-05-20T09:24:28.823Z,53.00
2017-05-20T09:26:59.623Z,53.50
2017-05-20T09:29:28.390Z,51.30
2017-05-20T09:31:58.077Z,52.40
2017-05-20T09:34:26.849Z,51.70
2017-05-20T09:36:55.622Z,52.00
2017-05-20T09:39:24.394Z,50.70
2017-05-20T09:41:53.204Z,51.60
2017-05-20T09:44:21.970Z,51.50
2017-05-20T09:46:51.734Z,50.80
2017-05-20T09:49:49.406Z,50.60
2017-05-20T09:52:18.197Z,51.10
2017-05-20T09:54:46.958Z,50.10
2017-05-20T09:57:15.742Z,51.40
2017-05-20T09:59:44.518Z,50.30
2017-05-20T10:02:13.285Z,49.20
2017-05-20T10:04:42.074Z,50.20
2017-05-20T10:07:11.837Z,50.10
2017-05-20T10:09:40.626Z,49.30
2017-05-20T10:12:09.430Z,46.80
2017-05-20T10:14:38.202Z,47.30
2017-05-20T10:17:06.981Z,46.80
2017-05-20T10:19:35.762Z,47.10
2017-05-20T10:22:04.529Z,48.10
2017-05-20T10:24:33.301Z,48.90
2017-05-20T10:27:03.081Z,50.10
2017-05-20T10:29:31.850Z,48.90
2017-05-20T10:32:00.625Z,48.80
2017-05-20T10:34:30.365Z,49.60
2017-05-20T10:36:59.149Z,48.40
2017-05-20T10:39:29.253Z,48.10
2017-05-20T10:41:58.045Z,48.00
2017-05-20T10:44:26.834Z,49.90
2017-05-20T10:46:55.761Z,46.50
2017-05-20T10:49:24.530Z,46.50
2017-05-20T10:51:53.301Z,47.00
2017-05-20T10:54:22.806Z,46.70
2017-05-20T10:56:51.624Z,47.40
2017-05-20T10:59:22.338Z,46.80
2017-05-20T11:01:52.041Z,46.70
2017-05-20T11:04:20.841Z,46.40
2017-05-20T11:06:49.617Z,45.50
2017-05-20T11:09:18.393Z,45.10
2017-05-20T11:11:47.169Z,45.20
2017-05-20T11:14:15.937Z,45.20
2017-05-20T11:16:49.156Z,45.70
2017-05-20T11:19:17.938Z,44.10
2017-05-20T11:21:46.737Z,44.30
2017-05-20T11:24:17.481Z,45.40
2017-05-20T11:26:46.256Z,43.90
2017-05-20T11:29:14.349Z,43.90
2017-05-20T11:31:43.135Z,44.90
2017-05-20T11:34:12.832Z,45.90
2017-05-20T11:36:41.612Z,46.30
2017-05-20T11:39:10.405Z,45.70
2017-05-20T11:41:39.168Z,46.20
2017-05-20T11:44:07.956Z,43.70
2017-05-20T11:46:36.744Z,45.80
2017-05-20T11:49:05.528Z,45.70
2017-05-20T11:51:34.297Z,44.10
2017-05-20T11:54:06.553Z,44.30
2017-05-20T11:56:35.329Z,44.10
2017-05-20T11:59:04.100Z,44.30
2017-05-20T12:01:33.788Z,46.50
2017-05-20T12:04:04.532Z,45.60
2017-05-20T12:06:40.772Z,44.60
2017-05-20T12:09:13.701Z,42.80
2017-05-20T12:11:42.945Z,43.70
2017-05-20T12:14:12.692Z,41.30
2017-05-20T12:16:44.984Z,43.80
2017-05-20T12:19:13.744Z,41.50
2017-05-20T12:21:42.520Z,41.20
2017-05-20T12:24:11.332Z,41.80
2017-05-20T12:26:40.108Z,43.20
2017-05-20T12:29:08.884Z,43.80
2017-05-20T12:31:37.668Z,43.90
2017-05-20T12:34:06.454Z,43.50
2017-05-20T12:36:35.208Z,42.50
2017-05-20T12:39:04.024Z,43.10
2017-05-20T12:41:32.807Z,44.20
2017-05-20T12:44:01.576Z,43.90
2017-05-20T12:46:30.380Z,42.80
2017-05-20T12:49:00.084Z,44.00
2017-05-20T12:51:28.852Z,42.50
2017-05-20T12:53:57.628Z,43.20
2017-05-20T12:56:26.399Z,45.00
2017-05-20T12:58:55.291Z,43.10
2017-05-20T13:01:24.031Z,42.50
2017-05-20T13:03:52.808Z,43.20
2017-05-20T13:06:21.575Z,44.10
2017-05-20T13:08:50.360Z,43.40
2017-05-20T13:11:19.143Z,44.90
2017-05-20T13:13:47.995Z,45.30
2017-05-20T13:16:16.791Z,45.20
2017-05-20T13:18:45.560Z,44.40
2017-05-20T13:21:14.328Z,44.40
2017-05-20T13:23:43.116Z,44.90
2017-05-20T13:26:11.903Z,44.80
2017-05-20T13:28:40.672Z,43.00
2017-05-20T13:31:09.455Z,42.70
2017-05-20T13:33:38.223Z,43.60
2017-05-20T13:36:07.979Z,44.20
2017-05-20T13:38:36.771Z,41.70
2017-05-20T13:41:05.535Z,41.30
2017-05-20T13:43:34.306Z,40.70
2017-05-20T13:46:03.083Z,42.90
2017-05-20T13:48:31.843Z,40.70
2017-05-20T13:51:00.623Z,41.30
2017-05-20T13:53:29.391Z,41.70
2017-05-20T13:55:58.151Z,42.40
2017-05-20T13:58:26.975Z,42.80
2017-05-20T14:00:55.762Z,43.60
2017-05-20T14:03:24.559Z,42.80
2017-05-20T14:05:53.378Z,44.20
2017-05-20T14:08:22.106Z,43.60
2017-05-20T14:10:50.871Z,43.30
2017-05-20T14:13:19.642Z,43.40
2017-05-20T14:15:48.422Z,42.40
2017-05-20T14:18:17.192Z,42.50
2017-05-20T14:20:45.954Z,42.40
2017-05-20T14:23:14.726Z,42.50
2017-05-20T14:25:43.491Z,42.90
2017-05-20T14:28:13.235Z,41.40
2017-05-20T14:30:42.007Z,43.10
2017-05-20T14:33:10.779Z,43.60
2017-05-20T14:35:41.563Z,44.40
2017-05-20T14:38:10.339Z,45.00
2017-05-20T14:40:39.107Z,44.30
2017-05-20T14:43:07.882Z,44.90
2017-05-20T14:45:36.674Z,44.80
2017-05-20T14:48:05.446Z,44.10
2017-05-20T14:50:34.218Z,44.30
2017-05-20T14:53:03.102Z,45.00
2017-05-20T14:55:31.830Z,44.50
2017-05-20T14:58:00.618Z,43.80
2017-05-20T15:00:29.382Z,43.20
2017-05-20T15:02:58.150Z,44.30
2017-05-20T15:05:26.926Z,43.80
2017-05-20T15:07:55.721Z,43.60
2017-05-20T15:10:24.478Z,43.80
2017-05-20T15:12:53.271Z,43.70
2017-05-20T15:15:22.038Z,43.90
2017-05-20T15:17:50.809Z,43.80
2017-05-20T15:20:19.586Z,43.90
2017-05-20T15:22:48.349Z,43.50
2017-05-20T15:25:17.123Z,43.90
2017-05-20T15:27:45.137Z,43.80
2017-05-20T15:30:13.909Z,44.20
2017-05-20T15:32:42.682Z,44.30
2017-05-20T15:35:11.463Z,44.80
2017-05-20T15:37:40.227Z,45.10
2017-05-20T15:40:09.018Z,45.80
2017-05-20T15:42:37.809Z,45.90
2017-05-20T15:45:06.642Z,44.80
2017-05-20T16:00:23.584Z,44.30
2017-05-20T16:02:53.278Z,43.50
2017-05-20T16:05:22.045Z,43.20
2017-05-20T16:07:50.825Z,44.40
2017-05-20T16:10:19.593Z,43.90
2017-05-20T16:12:49.350Z,43.90
2017-05-20T16:15:19.080Z,44.20
2017-05-20T16:17:47.857Z,43.80
2017-05-20T16:20:18.581Z,44.20
2017-05-20T16:22:47.353Z,44.40
2017-05-20T16:25:16.114Z,43.20
2017-05-20T16:27:44.885Z,43.00
2017-05-20T16:30:13.657Z,44.00
2017-05-20T16:32:42.421Z,44.20
2017-05-20T16:35:11.192Z,44.00
2017-05-20T16:37:39.965Z,44.50
2017-05-20T16:40:08.748Z,45.20
2017-05-20T16:42:37.509Z,45.70
2017-05-20T16:45:06.292Z,46.60
2017-05-20T16:47:35.068Z,47.70
2017-05-20T16:50:03.849Z,48.00
2017-05-20T16:52:32.629Z,49.00
2017-05-20T16:55:01.406Z,49.20
2017-05-20T16:57:30.608Z,49.20
2017-05-20T16:59:59.393Z,50.10
2017-05-20T17:02:28.169Z,49.40
2017-05-20T17:04:56.949Z,49.90
2017-05-20T17:07:25.792Z,50.00
2017-05-20T17:09:54.548Z,50.00
2017-05-20T17:12:23.320Z,49.90
2017-05-20T17:14:52.113Z,49.90
2017-05-20T17:17:20.880Z,50.00
2017-05-20T17:19:49.648Z,49.80
2017-05-20T17:22:18.424Z,50.70
2017-05-20T17:24:47.193Z,50.60
2017-05-20T17:27:15.956Z,51.30
2017-05-20T17:29:44.732Z,51.20
2017-05-20T17:32:13.500Z,51.30
2017-05-20T17:34:42.273Z,50.90
2017-05-20T17:37:11.081Z,51.40
2017-05-20T17:39:39.828Z,50.90
2017-05-20T17:42:09.612Z,50.20
2017-05-20T17:44:38.384Z,50.50
2017-05-20T17:47:07.157Z,50.90
2017-05-20T17:49:35.925Z,50.70
2017-05-20T17:52:04.712Z,50.70
2017-05-20T17:54:33.476Z,50.10
2017-05-20T17:57:02.243Z,50.30
2017-05-20T17:59:31.019Z,50.00
2017-05-20T18:01:59.799Z,50.40
2017-05-20T18:04:30.556Z,51.00
2017-05-20T18:06:59.334Z,51.10
2017-05-20T18:09:28.144Z,51.20
2017-05-20T18:11:56.896Z,51.40
2017-05-20T18:14:25.668Z,51.80
2017-05-20T18:16:54.455Z,51.40
2017-05-20T18:19:23.244Z,51.80
2017-05-20T18:21:52.903Z,51.40
2017-05-20T18:24:21.676Z,51.90
2017-05-20T18:26:50.479Z,51.40
2017-05-20T18:29:19.243Z,52.00
2017-05-20T18:31:48.023Z,51.20
2017-05-20T18:34:16.815Z,50.70
2017-05-20T18:36:45.583Z,50.70
2017-05-20T18:39:14.360Z,50.50
2017-05-20T18:41:43.163Z,50.50
2017-05-20T18:44:11.940Z,50.80
2017-05-20T18:46:40.711Z,50.60
2017-05-20T18:49:09.499Z,50.90
2017-05-20T18:51:38.263Z,50.70
2017-05-20T18:54:07.031Z,50.90
2017-05-20T18:56:35.807Z,51.30
2017-05-20T18:59:04.575Z,51.70
2017-05-20T19:01:33.334Z,51.20
2017-05-20T19:04:02.111Z,51.50
2017-05-20T19:06:30.883Z,51.80
2017-05-20T19:08:59.659Z,52.00
2017-05-20T19:11:29.339Z,51.50
2017-05-20T19:13:58.119Z,52.00
2017-05-20T19:16:26.883Z,52.40
2017-05-20T19:18:55.668Z,52.20
2017-05-20T19:21:24.439Z,53.00
2017-05-20T19:23:53.211Z,53.50
2017-05-20T19:26:22.002Z,54.00
2017-05-20T19:28:53.827Z,55.30
2017-05-20T19:31:22.607Z,55.40
2017-05-20T19:34:05.746Z,55.50
2017-05-20T19:36:35.955Z,55.40
2017-05-20T19:39:04.727Z,55.50
2017-05-20T19:41:33.507Z,56.30
2017-05-20T19:44:02.291Z,56.10
2017-05-20T19:46:34.282Z,56.40
2017-05-20T19:49:03.071Z,56.10
2017-05-20T19:51:31.866Z,56.30
2017-05-20T19:54:00.642Z,56.80
2017-05-20T19:56:34.910Z,56.50
2017-05-20T19:59:03.678Z,56.70
2017-05-20T20:01:32.450Z,56.90
2017-05-20T20:04:01.234Z,57.40
2017-05-20T20:06:30.006Z,57.80
2017-05-20T20:08:58.790Z,58.20
2017-05-20T20:11:27.574Z,58.00
2017-05-20T20:13:56.366Z,58.20
2017-05-20T20:16:25.146Z,58.00
2017-05-20T20:18:58.665Z,58.00
2017-05-20T20:21:27.441Z,57.70
2017-05-20T20:23:56.214Z,57.90
2017-05-20T20:26:35.546Z,57.80
2017-05-20T20:29:04.330Z,57.90
2017-05-20T20:31:39.965Z,58.50
2017-05-20T20:34:10.730Z,59.20
2017-05-20T20:36:46.650Z,59.30
2017-05-20T20:39:15.425Z,58.90
2017-05-20T20:41:45.179Z,58.90
2017-05-20T20:44:13.974Z,59.50
2017-05-20T20:46:48.653Z,59.90
2017-05-20T20:49:17.440Z,60.80
2017-05-20T20:51:47.190Z,60.50
2017-05-20T20:54:17.218Z,60.60
2017-05-20T20:56:46.074Z,61.10
2017-05-20T20:59:14.858Z,62.50
2017-05-20T21:01:47.273Z,63.40
2017-05-20T21:04:26.577Z,64.00
2017-05-20T21:07:01.394Z,64.30
2017-05-20T21:09:30.169Z,64.30
2017-05-20T21:12:02.282Z,64.00
2017-05-20T21:14:38.814Z,64.40
2017-05-20T21:17:08.557Z,64.70
2017-05-20T21:19:38.258Z,64.80
2017-05-20T21:22:07.033Z,64.80
2017-05-20T21:24:35.813Z,64.80
2017-05-20T21:27:04.581Z,66.70
2017-05-20T21:29:33.368Z,66.50
2017-05-20T21:32:02.145Z,66.80
2017-05-20T21:34:33.925Z,67.40
2017-05-20T21:37:02.712Z,66.70
2017-05-20T21:39:31.473Z,67.00
2017-05-20T21:42:00.241Z,67.50
2017-05-20T21:44:29.025Z,67.20
2017-05-20T21:46:57.793Z,67.50
2017-05-20T21:49:26.565Z,67.80
2017-05-20T21:51:55.345Z,67.80
2017-05-20T21:54:24.121Z,67.90
2017-05-20T21:56:52.888Z,69.20
2017-05-20T21:59:27.821Z,70.40
2017-05-20T22:01:56.580Z,70.70
2017-05-20T22:04:25.350Z,70.60
2017-05-20T22:06:54.137Z,71.40
2017-05-20T22:09:22.901Z,72.20
2017-05-20T22:11:51.668Z,72.30
2017-05-20T22:14:20.445Z,73.10
2017-05-20T22:16:49.225Z,73.00
2017-05-20T22:19:18.985Z,73.30
2017-05-20T22:21:48.721Z,73.90
2017-05-20T22:24:17.489Z,74.10
2017-05-20T22:26:46.256Z,74.30
2017-05-20T22:29:15.037Z,74.00
2017-05-20T22:31:43.812Z,73.30
2017-05-20T22:34:12.580Z,73.60
2017-05-20T22:36:41.356Z,73.30
2017-05-20T22:39:15.332Z,73.10
2017-05-20T22:41:44.104Z,72.50
2017-05-20T22:44:12.881Z,72.60
2017-05-20T22:46:41.648Z,72.50
2017-05-20T22:49:15.304Z,72.00
2017-05-20T22:51:45.013Z,71.70
2017-05-20T22:54:13.790Z,72.40
2017-05-20T22:56:42.608Z,72.10
2017-05-20T22:59:28.604Z,72.50
2017-05-20T23:01:57.388Z,73.30
2017-05-20T23:04:26.161Z,73.70
2017-05-20T23:06:54.936Z,75.30
2017-05-20T23:09:23.712Z,75.50
2017-05-20T23:11:52.488Z,75.20
2017-05-20T23:14:21.260Z,75.80
2017-05-20T23:16:53.068Z,75.40
2017-05-20T23:19:21.840Z,77.30
2017-05-20T23:21:50.608Z,76.50
2017-05-20T23:24:19.417Z,76.70
2017-05-20T23:26:48.187Z,77.00
2017-05-20T23:29:16.965Z,76.00
2017-05-20T23:31:45.772Z,75.80
2017-05-20T23:34:14.543Z,74.40
2017-05-20T23:36:43.316Z,74.00
2017-05-20T23:39:12.120Z,74.00
2017-05-20T23:41:40.892Z,75.20
2017-05-20T23:44:09.664Z,75.30
2017-05-20T23:46:38.475Z,75.30
2017-05-20T23:49:07.251Z,75.90
2017-05-20T23:51:36.015Z,76.80
2017-05-20T23:54:06.715Z,77.50
2017-05-20T23:56:35.480Z,76.80
2017-05-20T23:59:04.247Z,76.10
